createdAt,value
2018-06-08T00:00:52.336Z,18.25
2018-06-08T00:03:22.845Z,18.10
2018-06-08T00:05:53.339Z,17.92
2018-06-08T00:08:23.820Z,18.50
2018-06-08T00:10:54.223Z,17.70
2018-06-08T00:13:24.591Z,18.70
2018-06-08T00:15:54.993Z,16.50
2018-06-08T00:18:25.521Z,15.58
2018-06-08T00:20:55.744Z,14.60
2018-06-08T00:23:26.117Z,16.42
2018-06-08T00:25:56.588Z,16.95
2018-06-08T00:28:27.129Z,14.28
2018-06-08T00:30:57.637Z,14.95
2018-06-08T00:33:28.053Z,17.02
2018-06-08T00:35:58.507Z,16.77
2018-06-08T00:38:28.921Z,19.35
2018-06-08T00:40:59.338Z,18.17
2018-06-08T00:43:29.762Z,15.88
2018-06-08T00:46:00.287Z,14.07
2018-06-08T00:48:30.800Z,16.15
2018-06-08T00:51:01.292Z,16.62
2018-06-08T00:53:31.794Z,15.58
2018-06-08T00:56:02.216Z,13.05
2018-06-08T00:58:32.581Z,17.23
2018-06-08T01:01:03.057Z,16.48
2018-06-08T01:03:33.453Z,14.53
2018-06-08T01:06:03.858Z,18.90
2018-06-08T01:08:34.372Z,12.60
2018-06-08T01:11:04.843Z,13.13
2018-06-08T01:13:35.271Z,14.45
2018-06-08T01:16:05.703Z,12.20
2018-06-08T01:18:36.125Z,13.35
2018-06-08T01:21:06.555Z,10.30
2018-06-08T01:23:36.975Z,14.63
2018-06-08T01:26:07.391Z,12.05
2018-06-08T01:28:37.765Z,13.28
2018-06-08T01:31:08.177Z,11.53
2018-06-08T01:33:38.636Z,10.35
2018-06-08T01:36:08.756Z,14.73
2018-06-08T01:38:38.995Z,11.53
2018-06-08T01:41:09.520Z,11.28
2018-06-08T01:43:39.912Z,11.68
2018-06-08T01:46:10.468Z,14.38
2018-06-08T01:48:41.724Z,16.12
2018-06-08T01:51:12.333Z,12.65
2018-06-08T01:53:42.757Z,11.65
2018-06-08T01:56:13.183Z,13.15
2018-06-08T01:58:43.617Z,12.85
2018-06-08T02:01:14.054Z,14.50
2018-06-08T02:03:44.428Z,11.55
2018-06-08T02:06:14.913Z,10.82
2018-06-08T02:08:45.315Z,20.08
2018-06-08T02:11:15.890Z,10.65
2018-06-08T02:13:46.302Z,11.78
2018-06-08T02:16:16.747Z,12.60
2018-06-08T02:18:47.188Z,11.75
2018-06-08T02:21:18.244Z,14.45
2018-06-08T02:23:48.707Z,10.80
2018-06-08T02:26:19.109Z,10.53
2018-06-08T02:28:49.550Z,9.60
2018-06-08T02:31:20.003Z,12.83
2018-06-08T02:33:50.438Z,13.50
2018-06-08T02:36:20.893Z,12.58
2018-06-08T02:38:51.357Z,11.70
2018-06-08T02:41:21.790Z,11.30
2018-06-08T02:43:52.169Z,10.93
2018-06-08T02:46:22.582Z,13.25
2018-06-08T02:48:53.172Z,11.77
2018-06-08T02:51:23.577Z,16.32
2018-06-08T02:53:54.038Z,18.80
2018-06-08T02:56:24.137Z,19.80
2018-06-08T02:58:54.648Z,22.95
2018-06-08T03:01:26.031Z,23.45
2018-06-08T03:03:56.478Z,30.37
2018-06-08T03:06:26.944Z,41.63
2018-06-08T03:08:57.423Z,37.58
2018-06-08T03:11:27.484Z,38.33
2018-06-08T03:13:57.798Z,38.00
2018-06-08T03:16:28.287Z,43.92
2018-06-08T03:18:58.693Z,39.00
2018-06-08T03:21:29.104Z,33.43
2018-06-08T03:23:59.535Z,34.70
2018-06-08T03:26:29.899Z,35.20
2018-06-08T03:29:00.348Z,36.80
2018-06-08T03:31:30.768Z,37.67
2018-06-08T03:34:01.145Z,32.38
2018-06-08T03:36:31.574Z,31.10
2018-06-08T03:39:01.965Z,33.75
2018-06-08T03:41:32.460Z,35.10
2018-06-08T03:44:02.936Z,32.03
2018-06-08T03:46:33.405Z,30.17
2018-06-08T03:49:06.203Z,27.25
2018-06-08T03:51:37.384Z,30.90
2018-06-08T03:54:07.842Z,30.23
2018-06-08T03:56:38.210Z,24.32
2018-06-08T03:59:10.727Z,22.95
2018-06-08T04:01:42.229Z,30.02
2018-06-08T04:04:13.204Z,27.32
2018-06-08T04:06:45.193Z,27.80
2018-06-08T04:09:15.989Z,22.98
2018-06-08T04:11:48.544Z,22.37
2018-06-08T04:14:19.068Z,21.25
2018-06-08T04:16:50.511Z,19.05
2018-06-08T04:19:21.218Z,23.27
2018-06-08T04:21:51.702Z,25.40
2018-06-08T04:24:22.244Z,20.77
2018-06-08T04:26:52.741Z,20.35
2018-06-08T04:29:23.199Z,21.37
2018-06-08T04:31:53.657Z,19.07
2018-06-08T04:34:24.128Z,20.50
2018-06-08T04:36:55.095Z,21.80
2018-06-08T04:39:25.589Z,23.02
2018-06-08T04:42:06.084Z,21.87
2018-06-08T04:44:39.720Z,19.25
2018-06-08T04:47:19.023Z,21.00
2018-06-08T04:49:50.232Z,21.10
2018-06-08T04:52:28.261Z,16.32
2018-06-08T04:55:05.132Z,17.60
2018-06-08T04:57:44.409Z,13.18
2018-06-08T05:00:17.912Z,18.75
2018-06-08T05:02:54.910Z,15.15
2018-06-08T05:05:30.713Z,11.45
2018-06-08T05:08:06.447Z,15.80
2018-06-08T05:10:37.837Z,12.80
2018-06-08T05:13:08.245Z,15.08
2018-06-08T05:15:39.716Z,13.72
2018-06-08T05:18:10.079Z,14.60
2018-06-08T05:20:40.461Z,11.03
2018-06-08T05:23:10.898Z,12.43
2018-06-08T05:25:41.357Z,11.83
2018-06-08T05:28:11.783Z,11.33
2018-06-08T05:30:42.202Z,10.53
2018-06-08T05:33:12.640Z,11.95
2018-06-08T05:35:43.094Z,12.70
2018-06-08T05:38:13.547Z,14.13
2018-06-08T05:40:43.968Z,11.33
2018-06-08T05:43:14.443Z,15.10
2018-06-08T05:45:44.801Z,11.45
2018-06-08T05:48:15.341Z,11.25
2018-06-08T05:50:45.658Z,10.35
2018-06-08T05:53:16.156Z,10.72
2018-06-08T05:55:46.626Z,15.03
2018-06-08T05:58:17.081Z,10.72
2018-06-08T06:00:47.495Z,11.60
2018-06-08T06:03:17.888Z,11.20
2018-06-08T06:05:48.321Z,11.33
2018-06-08T06:08:18.795Z,10.90
2018-06-08T06:10:49.238Z,13.08
2018-06-08T06:13:19.810Z,16.12
2018-06-08T06:15:51.388Z,12.90
2018-06-08T06:18:21.812Z,13.28
2018-06-08T06:20:52.384Z,15.80
2018-06-08T06:23:22.772Z,16.05
2018-06-08T06:25:53.219Z,12.47
2018-06-08T06:28:23.724Z,13.73
2018-06-08T06:30:54.165Z,15.48
2018-06-08T06:33:24.623Z,14.07
2018-06-08T06:35:55.035Z,17.10
2018-06-08T06:38:25.818Z,15.28
2018-06-08T06:40:56.728Z,14.00
2018-06-08T06:43:27.182Z,12.88
2018-06-08T06:45:57.649Z,12.00
2018-06-08T06:48:28.048Z,10.32
2018-06-08T06:50:58.574Z,18.45
2018-06-08T06:53:29.041Z,13.13
2018-06-08T06:55:59.605Z,13.95
2018-06-08T06:58:29.710Z,10.50
2018-06-08T07:00:59.950Z,10.90
2018-06-08T07:03:31.237Z,11.60
2018-06-08T07:06:01.626Z,11.23
2018-06-08T07:08:32.103Z,15.32
2018-06-08T07:11:02.550Z,14.78
2018-06-08T07:13:32.973Z,11.30
2018-06-08T07:16:03.319Z,11.33
2018-06-08T07:18:33.729Z,12.40
2018-06-08T07:21:04.178Z,15.40
2018-06-08T07:23:34.572Z,16.07
2018-06-08T07:26:05.015Z,15.72
2018-06-08T07:28:35.543Z,18.02
2018-06-08T07:31:06.008Z,12.10
2018-06-08T07:33:36.577Z,14.73
2018-06-08T07:36:07.125Z,13.70
2018-06-08T07:38:37.493Z,12.90
2018-06-08T07:41:08.001Z,14.40
2018-06-08T07:43:38.433Z,13.95
2018-06-08T07:46:08.853Z,13.43
2018-06-08T07:48:39.287Z,13.93
2018-06-08T07:51:09.780Z,17.23
2018-06-08T07:53:40.291Z,18.07
2018-06-08T07:56:10.749Z,16.35
2018-06-08T07:58:41.775Z,14.75
2018-06-08T08:01:12.274Z,17.45
2018-06-08T08:03:42.679Z,14.40
2018-06-08T08:06:13.080Z,17.35
2018-06-08T08:08:43.518Z,16.17
2018-06-08T08:11:14.116Z,16.87
2018-06-08T08:13:44.614Z,17.77
2018-06-08T08:16:15.090Z,16.82
2018-06-08T08:18:45.495Z,19.75
2018-06-08T08:21:16.685Z,18.55
2018-06-08T08:23:47.154Z,19.50
2018-06-08T08:26:17.623Z,16.97
2018-06-08T08:28:48.081Z,19.82
2018-06-08T08:31:18.598Z,17.00
2018-06-08T08:33:48.989Z,15.25
2018-06-08T08:36:19.427Z,18.12
2018-06-08T08:38:49.773Z,17.10
2018-06-08T08:41:20.251Z,20.02
2018-06-08T08:43:50.659Z,15.45
2018-06-08T08:46:21.055Z,16.73
2018-06-08T08:48:51.438Z,17.12
2018-06-08T08:51:21.890Z,19.48
2018-06-08T08:53:52.313Z,17.10
2018-06-08T08:56:22.779Z,16.45
2018-06-08T08:58:53.180Z,19.67
2018-06-08T09:01:23.589Z,16.32
2018-06-08T09:03:54.158Z,17.30
2018-06-08T09:06:24.575Z,18.02
2018-06-08T09:08:55.026Z,20.65
2018-06-08T09:11:25.503Z,17.87
2018-06-08T09:13:55.846Z,21.27
2018-06-08T09:16:26.232Z,18.50
2018-06-08T09:18:56.658Z,18.45
2018-06-08T09:21:27.069Z,18.07
2018-06-08T09:23:57.563Z,18.60
2018-06-08T09:26:28.063Z,18.55
2018-06-08T09:28:58.486Z,17.92
2018-06-08T09:31:28.898Z,17.10
2018-06-08T09:33:59.374Z,16.90
2018-06-08T09:36:29.875Z,14.53
2018-06-08T09:39:00.839Z,16.95
2018-06-08T09:41:31.234Z,16.77
2018-06-08T09:44:02.297Z,14.50
2018-06-08T09:46:32.635Z,15.93
2018-06-08T09:49:03.053Z,13.60
2018-06-08T09:51:33.408Z,14.70
2018-06-08T09:54:04.332Z,14.98
2018-06-08T09:56:35.426Z,13.45
2018-06-08T09:59:05.907Z,14.93
2018-06-08T10:01:36.278Z,15.20
2018-06-08T10:04:07.033Z,13.70
2018-06-08T10:06:37.405Z,17.42
2018-06-08T10:09:09.248Z,14.07
2018-06-08T10:11:39.660Z,18.42
2018-06-08T10:14:10.097Z,16.40
2018-06-08T10:16:40.572Z,16.00
2018-06-08T10:19:10.947Z,15.40
2018-06-08T10:21:41.442Z,13.80
2018-06-08T10:24:11.944Z,16.20
2018-06-08T10:26:43.058Z,17.15
2018-06-08T10:29:13.555Z,15.50
2018-06-08T10:31:44.014Z,15.78
2018-06-08T10:34:14.426Z,12.78
2018-06-08T10:36:44.812Z,12.55
2018-06-08T10:39:15.192Z,14.50
2018-06-08T10:41:45.645Z,15.23
2018-06-08T10:44:16.072Z,15.23
2018-06-08T10:46:46.629Z,14.63
2018-06-08T10:49:17.803Z,13.98
2018-06-08T10:51:48.204Z,13.55
2018-06-08T10:54:22.353Z,14.53
2018-06-08T10:56:52.846Z,14.05
2018-06-08T10:59:23.416Z,16.07
2018-06-08T11:01:53.901Z,14.83
2018-06-08T11:04:24.449Z,15.78
2018-06-08T11:06:54.883Z,16.17
2018-06-08T11:09:25.373Z,14.23
2018-06-08T11:11:55.931Z,16.73
2018-06-08T11:14:26.301Z,12.80
2018-06-08T11:16:56.746Z,14.33
2018-06-08T11:19:27.173Z,14.07
2018-06-08T11:21:57.651Z,14.35
2018-06-08T11:24:28.142Z,12.13
2018-06-08T11:26:58.568Z,12.93
2018-06-08T11:29:29.954Z,12.98
2018-06-08T11:32:00.140Z,13.60
2018-06-08T11:34:30.498Z,12.28
2018-06-08T11:37:00.899Z,14.10
2018-06-08T11:39:31.416Z,13.83
2018-06-08T11:42:02.381Z,11.05
2018-06-08T11:44:32.792Z,12.63
2018-06-08T11:47:03.265Z,13.68
2018-06-08T11:49:33.726Z,11.40
2018-06-08T11:52:04.134Z,12.58
2018-06-08T11:54:34.654Z,14.07
2018-06-08T11:57:05.059Z,12.43
2018-06-08T11:59:35.520Z,11.63
2018-06-08T12:02:06.224Z,10.95
2018-06-08T12:04:36.419Z,13.28
2018-06-08T12:07:06.769Z,12.47
2018-06-08T12:09:37.172Z,12.13
2018-06-08T12:12:07.523Z,12.82
2018-06-08T12:14:37.968Z,12.25
2018-06-08T12:17:08.351Z,14.58
2018-06-08T12:19:38.737Z,11.70
2018-06-08T12:22:09.192Z,13.72
2018-06-08T12:24:39.610Z,13.62
2018-06-08T12:27:10.051Z,11.95
2018-06-08T12:29:40.454Z,13.70
2018-06-08T12:32:10.811Z,12.47
2018-06-08T12:34:41.213Z,14.87
2018-06-08T12:37:11.600Z,14.38
2018-06-08T12:39:42.020Z,13.55
2018-06-08T12:42:12.434Z,13.90
2018-06-08T12:44:42.881Z,13.15
2018-06-08T12:47:13.317Z,13.95
2018-06-08T12:49:43.796Z,12.95
2018-06-08T12:52:14.212Z,13.00
2018-06-08T12:54:44.617Z,13.50
2018-06-08T12:57:15.086Z,16.23
2018-06-08T12:59:45.482Z,17.62
2018-06-08T13:02:15.977Z,18.60
2018-06-08T13:04:46.432Z,19.65
2018-06-08T13:07:17.761Z,18.95
2018-06-08T13:09:48.287Z,17.23
2018-06-08T13:12:18.657Z,16.57
2018-06-08T13:14:49.096Z,18.87
2018-06-08T13:17:19.454Z,17.75
2018-06-08T13:19:49.937Z,19.40
2018-06-08T13:22:20.359Z,18.02
2018-06-08T13:24:50.848Z,19.52
2018-06-08T13:27:21.265Z,19.60
2018-06-08T13:29:51.702Z,20.15
2018-06-08T13:32:22.139Z,17.48
2018-06-08T13:34:52.559Z,18.23
2018-06-08T13:37:23.875Z,18.40
2018-06-08T13:39:54.742Z,17.37
2018-06-08T13:42:25.109Z,17.35
2018-06-08T13:44:55.535Z,15.83
2018-06-08T13:47:25.995Z,15.85
2018-06-08T13:49:56.372Z,15.88
2018-06-08T13:52:27.224Z,15.65
2018-06-08T13:54:57.799Z,17.10
2018-06-08T13:57:27.977Z,18.12
2018-06-08T13:59:58.373Z,16.67
2018-06-08T14:02:28.816Z,17.32
2018-06-08T14:04:59.277Z,16.70
2018-06-08T14:07:29.654Z,20.25
2018-06-08T14:10:00.120Z,19.07
2018-06-08T14:12:30.538Z,17.00
2018-06-08T14:15:00.882Z,16.15
2018-06-08T14:17:31.357Z,16.23
2018-06-08T14:20:01.762Z,18.05
2018-06-08T14:22:32.224Z,15.60
2018-06-08T14:25:02.597Z,15.68
2018-06-08T14:27:33.071Z,15.30
2018-06-08T14:30:03.445Z,16.70
2018-06-08T14:32:33.605Z,16.80
2018-06-08T14:35:03.835Z,17.20
2018-06-08T14:37:34.263Z,14.90
2018-06-08T14:40:04.671Z,14.70
2018-06-08T14:42:35.172Z,14.18
2018-06-08T14:45:05.647Z,13.80
2018-06-08T14:47:36.114Z,14.78
2018-06-08T14:50:06.684Z,18.50
2018-06-08T14:52:37.203Z,16.20
2018-06-08T14:55:08.838Z,17.17
2018-06-08T14:57:39.241Z,14.50
2018-06-08T15:00:09.719Z,13.58
2018-06-08T15:02:40.146Z,13.75
2018-06-08T15:05:10.592Z,13.68
2018-06-08T15:07:41.665Z,13.05
2018-06-08T15:10:12.139Z,12.07
2018-06-08T15:12:42.519Z,14.38
2018-06-08T15:15:12.966Z,18.17
2018-06-08T15:17:43.472Z,17.00
2018-06-08T15:20:13.905Z,15.40
2018-06-08T15:22:44.917Z,14.98
2018-06-08T15:25:17.013Z,12.73
2018-06-08T15:27:47.536Z,13.13
2018-06-08T15:30:18.250Z,12.07
2018-06-08T15:32:49.153Z,12.03
2018-06-08T15:35:19.619Z,11.83
2018-06-08T15:37:50.143Z,12.03
2018-06-08T15:40:20.634Z,12.00
2018-06-08T15:42:51.001Z,13.50
2018-06-08T15:45:21.821Z,13.00
2018-06-08T15:47:52.627Z,12.20
2018-06-08T15:50:24.985Z,12.20
2018-06-08T15:52:55.487Z,13.77
2018-06-08T15:55:27.340Z,11.73
2018-06-08T15:58:00.961Z,10.47
2018-06-08T16:00:42.902Z,12.63
2018-06-08T16:03:16.151Z,10.20
2018-06-08T16:05:46.627Z,10.47
2018-06-08T16:08:17.779Z,10.70
2018-06-08T16:10:48.245Z,12.13
2018-06-08T16:13:19.607Z,11.63
2018-06-08T16:15:50.945Z,11.80
2018-06-08T16:18:21.418Z,11.13
2018-06-08T16:20:51.968Z,11.10
2018-06-08T16:23:23.329Z,13.63
2018-06-08T16:25:54.091Z,11.43
2018-06-08T16:28:24.644Z,12.90
2018-06-08T16:30:55.128Z,12.27
2018-06-08T16:33:25.697Z,10.10
2018-06-08T16:35:56.263Z,13.67
2018-06-08T16:38:26.732Z,13.00
2018-06-08T16:40:57.203Z,11.83
2018-06-08T16:43:27.695Z,11.50
2018-06-08T16:45:58.176Z,12.63
2018-06-08T16:48:28.730Z,11.70
2018-06-08T16:50:59.253Z,10.95
2018-06-08T16:53:29.708Z,10.45
2018-06-08T16:56:00.238Z,11.30
2018-06-08T16:58:30.682Z,12.47
2018-06-08T17:01:01.131Z,9.38
2018-06-08T17:03:31.543Z,7.90
2018-06-08T17:06:01.936Z,7.62
2018-06-08T17:08:32.428Z,7.25
2018-06-08T17:11:02.870Z,7.95
2018-06-08T17:13:33.310Z,8.30
2018-06-08T17:16:03.756Z,6.35
2018-06-08T17:18:34.238Z,6.70
2018-06-08T17:21:04.652Z,7.53
2018-06-08T17:23:35.050Z,9.80
2018-06-08T17:26:05.689Z,11.88
2018-06-08T17:28:36.160Z,13.22
2018-06-08T17:31:06.706Z,16.02
2018-06-08T17:33:37.143Z,15.53
2018-06-08T17:36:07.583Z,13.10
2018-06-08T17:38:38.090Z,16.20
2018-06-08T17:41:08.491Z,17.35
2018-06-08T17:43:40.089Z,31.33
2018-06-08T17:46:10.476Z,19.62
2018-06-08T17:48:40.946Z,17.60
2018-06-08T17:51:11.481Z,21.00
2018-06-08T17:53:41.890Z,18.98
2018-06-08T17:56:12.312Z,17.12
2018-06-08T17:58:42.796Z,18.40
2018-06-08T18:01:14.262Z,15.20
2018-06-08T18:03:44.742Z,13.80
2018-06-08T18:06:15.270Z,18.30
2018-06-08T18:08:45.744Z,14.87
2018-06-08T18:11:17.647Z,12.25
2018-06-08T18:13:51.088Z,10.82
2018-06-08T18:16:24.817Z,8.88
2018-06-08T18:19:08.928Z,7.40
2018-06-08T18:22:23.936Z,7.67
2018-06-08T18:24:57.903Z,9.10
2018-06-08T18:27:29.262Z,8.10
2018-06-08T18:30:01.830Z,10.72
2018-06-08T18:32:32.300Z,10.48
2018-06-08T18:35:03.358Z,8.78
2018-06-08T18:37:34.478Z,8.63
2018-06-08T18:40:06.573Z,10.75
2018-06-08T18:42:38.010Z,9.45
2018-06-08T18:45:08.527Z,7.22
2018-06-08T18:47:40.046Z,7.78
2018-06-08T18:50:10.632Z,8.48
2018-06-08T18:52:42.305Z,8.10
2018-06-08T18:55:13.174Z,8.48
2018-06-08T18:57:43.603Z,7.37
2018-06-08T19:00:14.181Z,8.33
2018-06-08T19:02:44.654Z,8.80
2018-06-08T19:05:15.182Z,7.30
2018-06-08T19:07:45.708Z,8.83
2018-06-08T19:10:16.337Z,9.95
2018-06-08T19:12:47.020Z,9.25
2018-06-08T19:15:17.563Z,9.15
2018-06-08T19:17:49.108Z,10.80
2018-06-08T19:20:19.579Z,10.63
2018-06-08T19:22:52.840Z,10.38
2018-06-08T19:25:29.971Z,10.25
2018-06-08T19:28:00.571Z,11.33
2018-06-08T19:30:31.911Z,10.98
2018-06-08T19:33:02.397Z,11.50
2018-06-08T19:35:34.185Z,10.98
2018-06-08T19:38:05.372Z,12.23
2018-06-08T19:40:36.852Z,13.25
2018-06-08T19:43:07.242Z,12.53
2018-06-08T19:45:37.948Z,12.18
2018-06-08T19:48:08.409Z,12.70
2018-06-08T19:50:38.796Z,14.75
2018-06-08T19:53:09.197Z,14.33
2018-06-08T19:55:39.662Z,17.92
2018-06-08T19:58:10.127Z,15.43
2018-06-08T20:00:41.371Z,16.62
2018-06-08T20:03:11.542Z,14.40
2018-06-08T20:05:41.896Z,14.20
2018-06-08T20:08:12.422Z,14.25
2018-06-08T20:10:43.901Z,15.80
2018-06-08T20:13:14.379Z,15.65
2018-06-08T20:15:44.761Z,15.53
2018-06-08T20:18:15.205Z,21.15
2018-06-08T20:20:45.626Z,16.20
2018-06-08T20:23:16.141Z,17.00
2018-06-08T20:25:46.565Z,15.30
2018-06-08T20:28:17.187Z,17.60
2018-06-08T20:30:47.522Z,15.98
2018-06-08T20:33:17.927Z,16.25
2018-06-08T20:35:48.404Z,17.20
2018-06-08T20:38:18.812Z,16.97
2018-06-08T20:40:49.245Z,22.25
2018-06-08T20:43:19.725Z,16.97
2018-06-08T20:45:50.093Z,16.48
2018-06-08T20:48:20.622Z,20.27
2018-06-08T20:50:51.084Z,16.57
2018-06-08T20:53:21.443Z,18.82
2018-06-08T20:55:51.903Z,18.27
2018-06-08T20:58:28.516Z,17.40
2018-06-08T21:00:59.026Z,17.20
2018-06-08T21:03:29.498Z,16.32
2018-06-08T21:05:59.891Z,16.85
2018-06-08T21:08:30.478Z,16.25
2018-06-08T21:11:00.847Z,18.75
2018-06-08T21:13:31.637Z,17.75
2018-06-08T21:16:02.027Z,18.27
2018-06-08T21:18:32.451Z,18.12
2018-06-08T21:21:03.320Z,17.57
2018-06-08T21:23:33.697Z,20.20
2018-06-08T21:26:04.149Z,19.17
2018-06-08T21:28:34.551Z,15.45
2018-06-08T21:31:05.029Z,17.67
2018-06-08T21:33:35.452Z,17.50
2018-06-08T21:36:05.871Z,16.82
2018-06-08T21:38:36.319Z,16.75
2018-06-08T21:41:06.783Z,15.68
2018-06-08T21:43:37.284Z,16.70
2018-06-08T21:46:07.697Z,16.52
2018-06-08T21:48:38.087Z,18.15
2018-06-08T21:51:08.555Z,16.95
2018-06-08T21:53:39.134Z,16.80
2018-06-08T21:56:09.564Z,15.00
2018-06-08T21:58:39.885Z,20.15
2018-06-08T22:01:10.834Z,17.62
2018-06-08T22:03:41.295Z,21.27
2018-06-08T22:06:11.641Z,18.65
2018-06-08T22:08:42.102Z,17.25
2018-06-08T22:11:12.788Z,15.65
2018-06-08T22:13:43.190Z,16.82
2018-06-08T22:16:14.619Z,16.37
2018-06-08T22:18:45.138Z,16.60
2018-06-08T22:21:15.602Z,16.48
2018-06-08T22:23:46.762Z,16.82
2018-06-08T22:26:17.205Z,14.00
2018-06-08T22:28:47.614Z,14.00
2018-06-08T22:31:18.024Z,15.15
2018-06-08T22:33:48.537Z,14.10
2018-06-08T22:36:18.971Z,17.50
2018-06-08T22:38:49.353Z,13.78
2018-06-08T22:41:19.736Z,16.30
2018-06-08T22:43:50.249Z,15.95
2018-06-08T22:46:20.614Z,18.90
2018-06-08T22:48:50.976Z,15.58
2018-06-08T22:51:21.368Z,17.52
2018-06-08T22:53:51.773Z,18.00
2018-06-08T22:56:22.211Z,18.40
2018-06-08T22:58:52.704Z,18.60
2018-06-08T23:01:23.292Z,15.68
2018-06-08T23:03:53.731Z,19.57
2018-06-08T23:06:24.175Z,17.35
2018-06-08T23:08:54.621Z,15.43
2018-06-08T23:11:25.048Z,17.98
2018-06-08T23:13:55.435Z,17.20
2018-06-08T23:16:25.892Z,16.75
2018-06-08T23:18:56.865Z,16.97
2018-06-08T23:21:27.281Z,15.75
2018-06-08T23:23:57.752Z,16.45
2018-06-08T23:26:28.184Z,16.70
2018-06-08T23:28:58.633Z,19.75
2018-06-08T23:31:29.100Z,19.15
2018-06-08T23:33:59.510Z,18.05
2018-06-08T23:36:29.960Z,16.77
2018-06-08T23:39:00.358Z,17.10
2018-06-08T23:41:30.821Z,27.80
2018-06-08T23:44:01.236Z,18.77
2018-06-08T23:46:31.645Z,18.87
2018-06-08T23:49:02.714Z,18.62
2018-06-08T23:51:33.120Z,23.35
2018-06-08T23:54:03.506Z,18.10
2018-06-08T23:56:33.958Z,20.02
2018-06-08T23:59:04.430Z,22.30
